Xunwu, China
Current Conditions -  °F | °C
As of 10:00 PM on Thursday 27 Nov 2014 (Local Time) from ZGOW Reporting Station
Haze Haze  
Wind Chill: 68°   Ceiling: 3300
Heat Index: 68°   Visibility: 2.5mi
Dew Point: 66°   Wind: 2mph
Humidity: 94%   Direction: 240°WSW
Pressure: 30.03"   Gusts: NA
Location:  24.95°N, 115.65°E
Report Text: ZGOW 271400Z 24001MPS 4000 BR FEW009 BKN033 20/19 Q1017 NOSIG
Loading
Personal Weather Stations






























Interactive Weather Map New forecast layout! Learn more

10-Day Weather Forecast

Advertisements
Track Severe Weather on mobile